Time;durP1;ratioP1;P1;durP2;ratioP2;P2;SDS_P1;SDS_P2;PMS_P1;PMS_P2;Temp;Humidity;BMP_temperature;BMP_pressure;BME280_temperature;BME280_humidity;BME280_pressure;Samples;Min_cycle;Max_cycle;Signal;HPM_P1;HPM_P2
2023/06/27 00:00:10;;;;;;;6.40;4.30;;;;;;;;;;5040299;28;20292;-56
2023/06/27 00:02:35;;;;;;;8.73;4.75;;;;;;;;;;5075923;28;20028;-56
2023/06/27 00:05:01;;;;;;;7.03;4.10;;;;;;;;;;5053948;28;20395;-56
2023/06/27 00:07:28;;;;;;;7.35;4.28;;;;;;;;;;5059892;28;20013;-56
2023/06/27 00:09:56;;;;;;;6.35;4.10;;;;;;;;;;5066363;28;20101;-57
2023/06/27 00:12:21;;;;;;;9.30;4.43;;;;;;;;;;5045380;28;20724;-58
2023/06/27 00:14:47;;;;;;;9.05;4.53;;;;;;;;;;5061733;28;20055;-56
2023/06/27 00:17:12;;;;;;;9.88;4.65;;;;;;;;;;5045075;28;20099;-56
2023/06/27 00:19:38;;;;;;;8.25;4.68;;;;;;;;;;5064948;28;20020;-56
2023/06/27 00:22:09;;;;;;;6.38;4.55;;;;;;;;;;5050375;28;20143;-56
2023/06/27 00:24:34;;;;;;;7.45;4.88;;;;;;;;;;5084124;28;20073;-57
2023/06/27 00:26:59;;;;;;;8.02;4.50;;;;;;;;;;5054483;28;20032;-57
2023/06/27 00:29:26;;;;;;;7.33;4.70;;;;;;;;;;5065619;28;20090;-57
2023/06/27 00:31:51;;;;;;;8.07;4.55;;;;;;;;;;5062699;28;20955;-57
2023/06/27 00:34:16;;;;;;;12.43;4.73;;;;;;;;;;5060481;28;20032;-57
2023/06/27 00:36:41;;;;;;;7.77;4.17;;;;;;;;;;5081311;28;20653;-56
2023/06/27 00:39:07;;;;;;;6.40;4.43;;;;;;;;;;5080059;28;20320;-56
2023/06/27 00:41:32;;;;;;;6.17;4.27;;;;;;;;;;5058700;28;20306;-57
2023/06/27 00:43:57;;;;;;;5.77;4.40;;;;;;;;;;5040044;28;20325;-56
2023/06/27 00:46:26;;;;;;;6.10;4.18;;;;;;;;;;5077371;28;20328;-57
2023/06/27 00:48:51;;;;;;;8.57;4.32;;;;;;;;;;5058673;28;20038;-56
2023/06/27 00:51:16;;;;;;;7.65;4.50;;;;;;;;;;5055019;28;20499;-57
2023/06/27 00:53:42;;;;;;;9.27;4.33;;;;;;;;;;5075630;28;20101;-57
2023/06/27 00:56:07;;;;;;;6.90;4.53;;;;;;;;;;5063540;28;20283;-56
2023/06/27 00:58:33;;;;;;;13.38;4.85;;;;;;;;;;5055827;28;20115;-56
2023/06/27 01:01:00;;;;;;;6.20;4.28;;;;;;;;;;5052233;28;20135;-57
2023/06/27 01:03:32;;;;;;;8.45;4.47;;;;;;;;;;5050687;28;20038;-57
2023/06/27 01:05:57;;;;;;;7.55;4.20;;;;;;;;;;5053402;28;20139;-57
2023/06/27 01:08:24;;;;;;;8.40;4.63;;;;;;;;;;5048164;28;20134;-57
2023/06/27 01:11:04;;;;;;;9.25;4.20;;;;;;;;;;5055854;28;20307;-57
2023/06/27 01:13:31;;;;;;;6.55;4.28;;;;;;;;;;5084554;28;20043;-57
2023/06/27 01:15:57;;;;;;;6.65;4.07;;;;;;;;;;5059174;28;20501;-56
2023/06/27 01:18:22;;;;;;;7.97;4.30;;;;;;;;;;5077972;28;20122;-56
2023/06/27 01:20:47;;;;;;;6.80;4.50;;;;;;;;;;5054345;28;20510;-57
2023/06/27 01:23:23;;;;;;;7.65;4.75;;;;;;;;;;5063138;28;20675;-57
2023/06/27 01:25:53;;;;;;;6.25;4.28;;;;;;;;;;5035476;28;20040;-57
2023/06/27 01:28:19;;;;;;;6.80;3.90;;;;;;;;;;5055834;28;20071;-57
2023/06/27 01:30:44;;;;;;;8.73;4.30;;;;;;;;;;5047893;28;20426;-57
2023/06/27 01:33:14;;;;;;;7.97;4.88;;;;;;;;;;5078503;28;20478;-57
2023/06/27 01:35:46;;;;;;;7.47;4.55;;;;;;;;;;5054643;28;20513;-57
2023/06/27 01:38:13;;;;;;;7.55;4.30;;;;;;;;;;5053601;28;20052;-57
2023/06/27 01:40:38;;;;;;;7.13;3.88;;;;;;;;;;5064727;28;20048;-57
2023/06/27 01:43:06;;;;;;;7.63;4.80;;;;;;;;;;5053464;28;20590;-57
2023/06/27 01:45:31;;;;;;;6.70;4.47;;;;;;;;;;5047492;28;20055;-58
2023/06/27 01:47:57;;;;;;;6.83;4.00;;;;;;;;;;5049718;28;20847;-57
2023/06/27 01:50:23;;;;;;;7.25;4.07;;;;;;;;;;5057838;28;20279;-56
2023/06/27 01:52:48;;;;;;;9.45;4.03;;;;;;;;;;5057517;28;20045;-57
2023/06/27 01:55:13;;;;;;;8.15;4.20;;;;;;;;;;5074393;28;20036;-58
2023/06/27 01:57:39;;;;;;;6.97;3.88;;;;;;;;;;5051476;28;20048;-58
2023/06/27 02:00:05;;;;;;;8.93;4.20;;;;;;;;;;5072938;28;20414;-56
2023/06/27 02:02:30;;;;;;;7.38;3.92;;;;;;;;;;5058544;28;20109;-57
2023/06/27 02:04:55;;;;;;;8.07;4.43;;;;;;;;;;5039262;28;20037;-57
2023/06/27 02:07:20;;;;;;;7.97;4.20;;;;;;;;;;5076467;28;20377;-57
2023/06/27 02:09:45;;;;;;;7.47;4.43;;;;;;;;;;5060497;28;20311;-57
2023/06/27 02:12:11;;;;;;;7.63;4.37;;;;;;;;;;5059172;28;20293;-58
2023/06/27 02:14:37;;;;;;;6.13;4.38;;;;;;;;;;5082608;28;20794;-57
2023/06/27 02:17:02;;;;;;;5.78;4.25;;;;;;;;;;5049664;28;20040;-57
2023/06/27 02:19:27;;;;;;;8.13;3.85;;;;;;;;;;5075014;28;20516;-56
2023/06/27 02:21:53;;;;;;;6.17;4.27;;;;;;;;;;5060866;28;20043;-56
2023/06/27 02:24:18;;;;;;;6.37;3.97;;;;;;;;;;5073948;28;20327;-57
2023/06/27 02:26:43;;;;;;;9.10;4.07;;;;;;;;;;5084137;27;20390;-56
2023/06/27 02:29:08;;;;;;;7.97;4.22;;;;;;;;;;5071283;28;20501;-56
2023/06/27 02:31:34;;;;;;;7.47;4.18;;;;;;;;;;5056597;28;20066;-56
2023/06/27 02:34:00;;;;;;;9.05;4.40;;;;;;;;;;5079642;28;20039;-56
2023/06/27 02:36:27;;;;;;;5.57;3.70;;;;;;;;;;5075956;28;20040;-56
2023/06/27 02:38:54;;;;;;;8.77;4.03;;;;;;;;;;5063572;28;20157;-56
2023/06/27 02:41:20;;;;;;;8.73;4.25;;;;;;;;;;5083542;28;20051;-56
2023/06/27 02:43:45;;;;;;;6.65;4.00;;;;;;;;;;5053204;28;20040;-56
2023/06/27 02:46:10;;;;;;;9.60;4.77;;;;;;;;;;5067670;28;20032;-56
2023/06/27 02:48:36;;;;;;;5.40;4.25;;;;;;;;;;5078938;28;20294;-55
2023/06/27 02:51:01;;;;;;;7.43;4.40;;;;;;;;;;5050907;28;20336;-56
2023/06/27 02:53:26;;;;;;;5.70;3.88;;;;;;;;;;5074369;28;20286;-56
2023/06/27 02:55:51;;;;;;;6.07;4.37;;;;;;;;;;5055078;28;20040;-56
2023/06/27 02:58:17;;;;;;;10.53;4.10;;;;;;;;;;5075720;28;20285;-57
2023/06/27 03:00:42;;;;;;;6.77;4.00;;;;;;;;;;5072296;28;20806;-55
2023/06/27 03:03:07;;;;;;;6.30;3.97;;;;;;;;;;5056660;28;20432;-54
2023/06/27 03:05:33;;;;;;;6.50;3.93;;;;;;;;;;5066685;28;20035;-56
2023/06/27 03:07:58;;;;;;;5.53;3.43;;;;;;;;;;5063974;28;20725;-55
2023/06/27 03:10:23;;;;;;;6.68;4.07;;;;;;;;;;5063008;28;20289;-55
2023/06/27 03:12:49;;;;;;;8.15;4.30;;;;;;;;;;5052113;28;20039;-55
2023/06/27 03:15:14;;;;;;;6.87;3.70;;;;;;;;;;5049766;28;20539;-55
2023/06/27 03:17:39;;;;;;;6.57;4.68;;;;;;;;;;5063084;28;20436;-56
2023/06/27 03:20:05;;;;;;;7.13;4.35;;;;;;;;;;5055607;28;20055;-57
2023/06/27 03:22:30;;;;;;;7.95;4.40;;;;;;;;;;5057698;28;20418;-58
2023/06/27 03:24:55;;;;;;;9.40;4.50;;;;;;;;;;5064261;28;20058;-55
2023/06/27 03:27:22;;;;;;;6.83;4.43;;;;;;;;;;5051656;28;20285;-56
2023/06/27 03:29:47;;;;;;;11.25;4.55;;;;;;;;;;5063760;28;20116;-57
2023/06/27 03:32:13;;;;;;;10.30;4.77;;;;;;;;;;5069260;28;20493;-57
2023/06/27 03:34:40;;;;;;;8.23;4.47;;;;;;;;;;5079936;28;20332;-56
2023/06/27 03:37:05;;;;;;;9.88;4.38;;;;;;;;;;5049068;28;20043;-56
2023/06/27 03:39:30;;;;;;;7.55;4.53;;;;;;;;;;5064336;28;20381;-58
2023/06/27 03:41:55;;;;;;;9.07;4.93;;;;;;;;;;5067482;28;20541;-57
2023/06/27 03:44:21;;;;;;;8.23;4.30;;;;;;;;;;5079938;28;20281;-56
2023/06/27 03:46:46;;;;;;;11.03;4.80;;;;;;;;;;5036378;28;20287;-57
2023/06/27 03:49:11;;;;;;;10.33;4.73;;;;;;;;;;5067954;28;20729;-57
2023/06/27 03:51:39;;;;;;;6.20;4.80;;;;;;;;;;5058403;28;20294;-57
2023/06/27 03:54:06;;;;;;;6.72;4.40;;;;;;;;;;5058527;28;20048;-57
2023/06/27 03:56:31;;;;;;;7.65;4.50;;;;;;;;;;5055692;28;20040;-57
2023/06/27 03:58:56;;;;;;;8.55;4.70;;;;;;;;;;5047413;28;20801;-57
2023/06/27 04:01:22;;;;;;;7.47;4.87;;;;;;;;;;5075752;28;20131;-57
2023/06/27 04:03:47;;;;;;;7.63;4.60;;;;;;;;;;5075328;28;20363;-57
2023/06/27 04:06:12;;;;;;;7.37;4.43;;;;;;;;;;5054279;28;20105;-57
2023/06/27 04:08:37;;;;;;;7.72;4.72;;;;;;;;;;5054505;28;20286;-57
2023/06/27 04:11:03;;;;;;;9.50;5.37;;;;;;;;;;5071339;28;20329;-57
2023/06/27 04:13:28;;;;;;;8.13;5.22;;;;;;;;;;5037778;28;20842;-56
2023/06/27 04:15:53;;;;;;;9.85;5.03;;;;;;;;;;5070082;28;20039;-57
2023/06/27 04:18:19;;;;;;;9.30;5.78;;;;;;;;;;5052558;28;20047;-56
2023/06/27 04:20:44;;;;;;;9.73;5.60;;;;;;;;;;5052512;28;20032;-58
2023/06/27 04:23:09;;;;;;;10.45;6.10;;;;;;;;;;5040886;28;21016;-57
2023/06/27 04:25:35;;;;;;;9.10;5.93;;;;;;;;;;5058122;28;20055;-57
2023/06/27 04:28:01;;;;;;;11.68;6.65;;;;;;;;;;5051793;28;20156;-57
2023/06/27 04:30:26;;;;;;;8.02;5.90;;;;;;;;;;5058461;28;20130;-58
2023/06/27 04:32:51;;;;;;;9.60;6.28;;;;;;;;;;5035058;28;20029;-56
2023/06/27 04:35:17;;;;;;;8.57;5.97;;;;;;;;;;5071735;28;20132;-58
2023/06/27 04:37:42;;;;;;;9.05;6.15;;;;;;;;;;5059202;28;22171;-56
2023/06/27 04:40:10;;;;;;;11.50;6.43;;;;;;;;;;5052548;28;20024;-56
2023/06/27 04:42:36;;;;;;;9.13;6.40;;;;;;;;;;5059715;28;20313;-58
2023/06/27 04:45:01;;;;;;;11.70;6.95;;;;;;;;;;5071279;28;20102;-57
2023/06/27 04:47:27;;;;;;;9.02;6.35;;;;;;;;;;5034446;28;20050;-57
2023/06/27 04:49:53;;;;;;;11.30;6.45;;;;;;;;;;5057945;28;20051;-57
2023/06/27 04:52:18;;;;;;;11.27;6.65;;;;;;;;;;5070681;28;20032;-58
2023/06/27 04:54:48;;;;;;;10.20;6.88;;;;;;;;;;5056341;28;20116;-58
2023/06/27 04:57:13;;;;;;;;;;;;;;;;;;5042364;28;20406;-56
2023/06/27 04:59:38;;;;;;;12.90;7.63;;;;;;;;;;5069762;28;20305;-58
2023/06/27 05:02:04;;;;;;;15.40;7.53;;;;;;;;;;5053869;28;20525;-58
2023/06/27 05:04:29;;;;;;;12.65;7.68;;;;;;;;;;5057169;28;20102;-56
2023/06/27 05:06:54;;;;;;;11.30;7.40;;;;;;;;;;5042062;28;20048;-60
2023/06/27 05:09:20;;;;;;;14.68;7.72;;;;;;;;;;5052389;28;20291;-55
2023/06/27 05:11:45;;;;;;;11.50;7.10;;;;;;;;;;5051099;28;20032;-56
2023/06/27 05:14:10;;;;;;;10.90;7.50;;;;;;;;;;5052006;28;20297;-57
2023/06/27 05:16:35;;;;;;;11.32;7.55;;;;;;;;;;5051870;28;20728;-56
2023/06/27 05:19:01;;;;;;;10.90;7.83;;;;;;;;;;5052204;28;20065;-57
2023/06/27 05:21:26;;;;;;;11.13;7.63;;;;;;;;;;5069497;28;20298;-58
2023/06/27 05:23:51;;;;;;;11.90;7.60;;;;;;;;;;5035136;28;20125;-56
2023/06/27 05:26:17;;;;;;;10.82;7.22;;;;;;;;;;5050572;28;20169;-56
2023/06/27 05:28:42;;;;;;;10.87;7.50;;;;;;;;;;5056250;28;20586;-56
2023/06/27 05:31:07;;;;;;;11.77;7.00;;;;;;;;;;5069511;28;20383;-57
2023/06/27 05:33:33;;;;;;;13.48;6.85;;;;;;;;;;5039381;28;20306;-56
2023/06/27 05:35:58;;;;;;;11.68;7.60;;;;;;;;;;5072006;28;20685;-56
2023/06/27 05:38:23;;;;;;;11.73;8.07;;;;;;;;;;5053551;28;20043;-56
2023/06/27 05:40:49;;;;;;;13.80;7.65;;;;;;;;;;5073124;28;20678;-56
2023/06/27 05:43:14;;;;;;;12.63;7.53;;;;;;;;;;5066141;28;20063;-55
2023/06/27 05:45:39;;;;;;;11.23;7.73;;;;;;;;;;5064220;28;20294;-56
2023/06/27 05:48:04;;;;;;;16.20;8.00;;;;;;;;;;5093949;27;20837;-56
2023/06/27 05:50:30;;;;;;;15.55;7.45;;;;;;;;;;5049216;28;20462;-55
2023/06/27 05:52:55;;;;;;;11.27;6.90;;;;;;;;;;5066418;28;20044;-56
2023/06/27 05:55:20;;;;;;;10.63;7.05;;;;;;;;;;5084572;28;20282;-56
2023/06/27 05:57:45;;;;;;;14.25;7.22;;;;;;;;;;5067726;28;20040;-57
2023/06/27 06:00:13;;;;;;;11.13;6.90;;;;;;;;;;5066240;28;20025;-57
2023/06/27 06:02:38;;;;;;;12.60;7.32;;;;;;;;;;5031051;28;20293;-58
2023/06/27 06:05:05;;;;;;;9.70;7.47;;;;;;;;;;5080563;22;20435;-56
2023/06/27 06:07:30;;;;;;;10.25;6.57;;;;;;;;;;5069476;28;20012;-56
2023/06/27 06:09:55;;;;;;;12.45;6.30;;;;;;;;;;5067907;28;20023;-57
2023/06/27 06:12:21;;;;;;;11.10;6.43;;;;;;;;;;5069666;28;20405;-55
2023/06/27 06:14:46;;;;;;;10.40;6.23;;;;;;;;;;5070373;28;20338;-57
2023/06/27 06:17:11;;;;;;;10.23;5.50;;;;;;;;;;5069822;28;20278;-58
2023/06/27 06:19:37;;;;;;;8.40;5.70;;;;;;;;;;5067698;28;20507;-57
2023/06/27 06:22:02;;;;;;;7.75;5.90;;;;;;;;;;5068121;28;20306;-58
2023/06/27 06:24:27;;;;;;;8.23;5.30;;;;;;;;;;5067710;23;20947;-56
2023/06/27 06:26:53;;;;;;;8.98;5.32;;;;;;;;;;5036920;28;20024;-56
2023/06/27 06:29:18;;;;;;;9.53;5.67;;;;;;;;;;5039231;28;20016;-55
2023/06/27 06:31:44;;;;;;;7.57;4.85;;;;;;;;;;5030692;28;20289;-55
2023/06/27 06:34:09;;;;;;;8.40;5.75;;;;;;;;;;5020662;28;20118;-58
2023/06/27 06:36:34;;;;;;;8.67;4.93;;;;;;;;;;5046876;28;20124;-55
2023/06/27 06:39:00;;;;;;;10.48;5.50;;;;;;;;;;5049729;28;20799;-57
2023/06/27 06:41:25;;;;;;;8.07;4.87;;;;;;;;;;5030807;28;20076;-55
2023/06/27 06:43:50;;;;;;;6.57;4.90;;;;;;;;;;5049987;28;20017;-54
2023/06/27 06:46:16;;;;;;;8.27;4.57;;;;;;;;;;5028640;28;20808;-57
2023/06/27 06:48:41;;;;;;;9.75;5.43;;;;;;;;;;5031001;28;20364;-55
2023/06/27 06:51:06;;;;;;;8.47;4.90;;;;;;;;;;5048732;28;20024;-56
2023/06/27 06:53:31;;;;;;;6.82;4.95;;;;;;;;;;5036325;28;20279;-55
2023/06/27 06:55:57;;;;;;;8.07;5.03;;;;;;;;;;5030946;28;20025;-55
2023/06/27 06:58:22;;;;;;;8.93;4.70;;;;;;;;;;5036145;28;20442;-55
2023/06/27 07:00:47;;;;;;;7.35;4.70;;;;;;;;;;5048071;28;20243;-56
2023/06/27 07:03:13;;;;;;;8.35;5.68;;;;;;;;;;5031430;28;20043;-55
2023/06/27 07:05:40;;;;;;;7.90;5.10;;;;;;;;;;5018227;28;20111;-55
2023/06/27 07:08:05;;;;;;;6.40;4.70;;;;;;;;;;5038210;28;20063;-55
2023/06/27 07:10:31;;;;;;;8.48;5.05;;;;;;;;;;5030599;28;20416;-57
2023/06/27 07:12:56;;;;;;;8.35;5.03;;;;;;;;;;5039906;28;20027;-55
2023/06/27 07:15:23;;;;;;;7.80;4.53;;;;;;;;;;5061946;28;20035;-55
2023/06/27 07:17:50;;;;;;;9.00;4.93;;;;;;;;;;5051589;28;20716;-56
2023/06/27 07:20:16;;;;;;;9.43;5.03;;;;;;;;;;5070051;28;20028;-55
2023/06/27 07:22:41;;;;;;;9.18;4.80;;;;;;;;;;5052120;28;20071;-55
2023/06/27 07:25:07;;;;;;;9.38;5.22;;;;;;;;;;5052648;28;20048;-55
2023/06/27 07:27:32;;;;;;;7.50;4.70;;;;;;;;;;5050657;28;20629;-56
2023/06/27 07:29:57;;;;;;;7.40;4.90;;;;;;;;;;5051840;28;20037;-56
2023/06/27 07:32:23;;;;;;;6.40;4.87;;;;;;;;;;5035634;28;20288;-56
2023/06/27 07:34:48;;;;;;;9.00;5.50;;;;;;;;;;5037029;28;20625;-56
2023/06/27 07:37:13;;;;;;;10.23;5.15;;;;;;;;;;5054511;28;20033;-57
2023/06/27 07:39:39;;;;;;;6.78;4.75;;;;;;;;;;5037718;28;20048;-57
2023/06/27 07:42:04;;;;;;;7.30;4.75;;;;;;;;;;5037080;28;20076;-57
2023/06/27 07:44:29;;;;;;;7.32;4.97;;;;;;;;;;5034515;28;20049;-56
2023/06/27 07:46:55;;;;;;;7.77;5.10;;;;;;;;;;5056141;28;20036;-57
2023/06/27 07:49:20;;;;;;;8.32;5.13;;;;;;;;;;5037298;28;20313;-56
2023/06/27 07:51:49;;;;;;;8.32;4.55;;;;;;;;;;5057618;28;20458;-56
2023/06/27 07:54:14;;;;;;;6.53;4.65;;;;;;;;;;5046319;28;20423;-56
2023/06/27 07:56:39;;;;;;;5.82;4.35;;;;;;;;;;5056159;28;20024;-56
2023/06/27 07:59:05;;;;;;;8.33;4.70;;;;;;;;;;5059551;28;20036;-56
2023/06/27 08:01:30;;;;;;;7.15;5.15;;;;;;;;;;5061799;28;20090;-56
2023/06/27 08:03:56;;;;;;;8.10;5.20;;;;;;;;;;5068847;28;20375;-56
2023/06/27 08:06:21;;;;;;;8.50;5.07;;;;;;;;;;5059873;28;20047;-56
2023/06/27 08:08:46;;;;;;;7.17;4.63;;;;;;;;;;5062014;28;20279;-56
2023/06/27 08:11:11;;;;;;;6.13;4.20;;;;;;;;;;5066508;28;20755;-55
2023/06/27 08:13:41;;;;;;;7.20;4.73;;;;;;;;;;5069448;28;20036;-55
2023/06/27 08:16:06;;;;;;;6.75;4.60;;;;;;;;;;5062056;28;20283;-57
2023/06/27 08:18:31;;;;;;;7.47;4.28;;;;;;;;;;5046663;28;20039;-56
2023/06/27 08:20:57;;;;;;;6.10;3.90;;;;;;;;;;5054172;28;20063;-56
2023/06/27 08:23:22;;;;;;;6.07;3.60;;;;;;;;;;5061772;28;20318;-56
2023/06/27 08:25:47;;;;;;;5.90;4.00;;;;;;;;;;5062683;28;20033;-58
2023/06/27 08:28:13;;;;;;;6.63;4.40;;;;;;;;;;5062194;28;20203;-56
2023/06/27 08:30:38;;;;;;;6.65;4.10;;;;;;;;;;5048128;28;20035;-56
2023/06/27 08:33:04;;;;;;;7.25;4.07;;;;;;;;;;5048490;28;20443;-55
2023/06/27 08:35:29;;;;;;;7.13;3.97;;;;;;;;;;5066342;28;20460;-56
2023/06/27 08:37:54;;;;;;;5.20;3.70;;;;;;;;;;5066579;28;20056;-56
2023/06/27 08:40:23;;;;;;;7.40;3.77;;;;;;;;;;5048134;28;20063;-56
2023/06/27 08:42:48;;;;;;;7.13;3.72;;;;;;;;;;5027911;28;20049;-56
2023/06/27 08:45:13;;;;;;;6.57;3.70;;;;;;;;;;5048643;28;20029;-56
2023/06/27 08:47:39;;;;;;;8.30;4.93;;;;;;;;;;5047806;28;20126;-56
2023/06/27 08:50:05;;;;;;;5.75;3.90;;;;;;;;;;5049923;28;20302;-56
2023/06/27 08:52:50;;;;;;;7.28;3.92;;;;;;;;;;5021291;28;20033;-57
2023/06/27 08:55:36;;;;;;;6.00;3.90;;;;;;;;;;5041979;28;20033;-57
2023/06/27 08:58:02;;;;;;;5.70;3.67;;;;;;;;;;5051205;28;20111;-55
2023/06/27 09:00:30;;;;;;;6.97;4.03;;;;;;;;;;5034143;28;20398;-56
2023/06/27 09:02:55;;;;;;;5.88;3.63;;;;;;;;;;5035683;28;20115;-56
2023/06/27 09:05:20;;;;;;;7.37;4.17;;;;;;;;;;5037685;28;20503;-56
2023/06/27 09:07:45;;;;;;;8.77;4.50;;;;;;;;;;5056900;28;20461;-56
2023/06/27 09:10:10;;;;;;;8.00;3.80;;;;;;;;;;5056645;28;20036;-57
2023/06/27 09:12:37;;;;;;;6.13;3.88;;;;;;;;;;5035774;28;20388;-56
2023/06/27 09:15:03;;;;;;;6.95;4.05;;;;;;;;;;5031378;28;20036;-57
2023/06/27 09:17:28;;;;;;;6.57;3.50;;;;;;;;;;5023920;28;20041;-57
2023/06/27 09:19:53;;;;;;;6.63;3.70;;;;;;;;;;5055291;28;20029;-56
2023/06/27 09:22:19;;;;;;;4.70;3.67;;;;;;;;;;5033601;28;20140;-56
2023/06/27 09:24:45;;;;;;;5.57;3.88;;;;;;;;;;5032817;28;20299;-58
2023/06/27 09:27:33;;;;;;;7.05;3.88;;;;;;;;;;5055399;28;20083;-57
2023/06/27 09:29:59;;;;;;;5.72;3.58;;;;;;;;;;5040674;28;20055;-57
2023/06/27 09:32:24;;;;;;;6.78;3.55;;;;;;;;;;5046917;28;20395;-57
2023/06/27 09:34:50;;;;;;;5.47;4.07;;;;;;;;;;5053028;28;20041;-57
2023/06/27 09:37:15;;;;;;;7.80;3.87;;;;;;;;;;5050234;28;20375;-57
2023/06/27 09:39:40;;;;;;;5.85;3.92;;;;;;;;;;5032269;28;20238;-57
2023/06/27 09:42:05;;;;;;;4.70;3.67;;;;;;;;;;5053904;28;20571;-56
2023/06/27 09:44:31;;;;;;;6.75;3.70;;;;;;;;;;5042519;28;20947;-57
2023/06/27 09:46:56;;;;;;;8.10;3.77;;;;;;;;;;5051700;28;20077;-56
2023/06/27 09:49:22;;;;;;;6.00;3.30;;;;;;;;;;5045223;28;20032;-56
2023/06/27 09:51:49;;;;;;;6.40;3.85;;;;;;;;;;5051642;28;20286;-60
2023/06/27 09:54:17;;;;;;;4.95;3.60;;;;;;;;;;5031990;28;20040;-57
2023/06/27 09:56:42;;;;;;;5.22;3.20;;;;;;;;;;5031390;28;20590;-59
2023/06/27 09:59:08;;;;;;;4.97;3.30;;;;;;;;;;5049150;28;20087;-58
2023/06/27 10:01:40;;;;;;;4.68;3.45;;;;;;;;;;5051392;28;20052;-57
2023/06/27 10:04:05;;;;;;;5.28;3.63;;;;;;;;;;5029804;28;21328;-59
2023/06/27 10:06:31;;;;;;;5.28;3.25;;;;;;;;;;5030541;28;20041;-58
2023/06/27 10:08:56;;;;;;;4.43;3.13;;;;;;;;;;5031023;28;20032;-58
2023/06/27 10:11:22;;;;;;;5.93;3.90;;;;;;;;;;5020811;28;20045;-56
2023/06/27 10:13:47;;;;;;;5.93;3.40;;;;;;;;;;5034819;28;20035;-57
2023/06/27 10:16:13;;;;;;;4.60;3.35;;;;;;;;;;5020645;28;20060;-60
2023/06/27 10:18:38;;;;;;;5.68;3.50;;;;;;;;;;5029207;28;20047;-59
2023/06/27 10:21:03;;;;;;;4.50;3.33;;;;;;;;;;5036875;28;20045;-57
2023/06/27 10:23:29;;;;;;;4.90;3.00;;;;;;;;;;5047645;28;20060;-57
2023/06/27 10:25:54;;;;;;;5.53;3.63;;;;;;;;;;5038857;28;20189;-56
2023/06/27 10:28:20;;;;;;;5.63;3.25;;;;;;;;;;5037070;28;20470;-55
2023/06/27 10:30:46;;;;;;;4.20;3.00;;;;;;;;;;5043857;28;20068;-56
2023/06/27 10:33:28;;;;;;;4.63;3.17;;;;;;;;;;5052930;28;20366;-55
2023/06/27 10:35:56;;;;;;;4.50;3.05;;;;;;;;;;5031227;28;20107;-56
2023/06/27 10:38:22;;;;;;;4.38;3.13;;;;;;;;;;5032790;28;20478;-56
2023/06/27 10:41:03;;;;;;;5.30;3.10;;;;;;;;;;5061021;28;20020;-55
2023/06/27 10:43:38;;;;;;;4.32;3.00;;;;;;;;;;5048093;28;20296;-56
2023/06/27 10:46:03;;;;;;;3.45;2.63;;;;;;;;;;5050389;28;20084;-56
2023/06/27 10:48:29;;;;;;;4.75;2.80;;;;;;;;;;5049951;28;21920;-56
2023/06/27 10:51:03;;;;;;;3.80;2.80;;;;;;;;;;5049565;28;20033;-56
2023/06/27 10:53:29;;;;;;;5.07;2.80;;;;;;;;;;5030794;28;20048;-56
2023/06/27 10:55:55;;;;;;;3.60;2.90;;;;;;;;;;5031334;28;20097;-55
2023/06/27 10:58:21;;;;;;;3.95;2.90;;;;;;;;;;5053509;28;20773;-54
2023/06/27 11:00:50;;;;;;;4.30;3.08;;;;;;;;;;5030111;28;20043;-56
2023/06/27 11:03:19;;;;;;;5.47;3.15;;;;;;;;;;5037813;28;20053;-56
2023/06/27 11:05:49;;;;;;;4.75;2.90;;;;;;;;;;5049619;28;20521;-56
2023/06/27 11:08:15;;;;;;;4.10;2.95;;;;;;;;;;5048511;28;20079;-57
2023/06/27 11:10:55;;;;;;;4.00;2.80;;;;;;;;;;5055264;28;20525;-56
2023/06/27 11:13:25;;;;;;;4.43;2.97;;;;;;;;;;5061279;28;20040;-57
2023/06/27 11:15:51;;;;;;;5.10;3.00;;;;;;;;;;5040223;28;20727;-56
2023/06/27 11:18:17;;;;;;;4.47;2.95;;;;;;;;;;5029813;28;20048;-56
2023/06/27 11:20:42;;;;;;;5.03;3.20;;;;;;;;;;5063162;28;20102;-55
2023/06/27 11:23:08;;;;;;;4.78;2.90;;;;;;;;;;5045615;28;20056;-55
2023/06/27 11:25:42;;;;;;;3.75;2.67;;;;;;;;;;5029231;28;20036;-56
2023/06/27 11:28:07;;;;;;;4.90;2.80;;;;;;;;;;5045317;28;20032;-56
2023/06/27 11:30:33;;;;;;;4.25;3.10;;;;;;;;;;5064079;28;20029;-56
2023/06/27 11:32:59;;;;;;;4.32;2.80;;;;;;;;;;5061913;28;20036;-56
2023/06/27 11:35:25;;;;;;;5.03;3.13;;;;;;;;;;5055669;28;20061;-56
2023/06/27 11:37:56;;;;;;;4.80;3.05;;;;;;;;;;5053522;28;20039;-56
2023/06/27 11:40:22;;;;;;;3.97;2.67;;;;;;;;;;5053111;28;20144;-56
2023/06/27 11:42:47;;;;;;;5.05;3.10;;;;;;;;;;5046446;28;20131;-57
2023/06/27 11:45:12;;;;;;;4.03;3.17;;;;;;;;;;5052477;28;20048;-56
2023/06/27 11:47:38;;;;;;;4.03;3.00;;;;;;;;;;5027169;28;20408;-56
2023/06/27 11:50:07;;;;;;;4.85;3.05;;;;;;;;;;5059370;28;20290;-56
2023/06/27 11:52:34;;;;;;;4.18;2.83;;;;;;;;;;5053170;28;20048;-56
2023/06/27 11:55:00;;;;;;;4.43;2.97;;;;;;;;;;5028950;28;20053;-55
2023/06/27 11:57:39;;;;;;;3.65;2.85;;;;;;;;;;5059377;28;20117;-55
2023/06/27 12:00:07;;;;;;;3.92;2.90;;;;;;;;;;5057692;28;20082;-55
2023/06/27 12:02:33;;;;;;;3.88;2.78;;;;;;;;;;5047798;28;20075;-56
2023/06/27 12:04:58;;;;;;;4.55;2.97;;;;;;;;;;5054443;28;20107;-55
2023/06/27 12:07:25;;;;;;;4.23;3.43;;;;;;;;;;5036989;28;20045;-56
2023/06/27 12:10:10;;;;;;;4.07;2.75;;;;;;;;;;5053070;28;20115;-55
2023/06/27 12:12:37;;;;;;;5.07;3.03;;;;;;;;;;5044517;28;20040;-56
2023/06/27 12:15:14;;;;;;;4.80;2.97;;;;;;;;;;5042234;28;20197;-55
2023/06/27 12:17:59;;;;;;;4.97;2.90;;;;;;;;;;5049286;28;20447;-56
2023/06/27 12:20:25;;;;;;;4.88;3.22;;;;;;;;;;5064378;28;20093;-56
2023/06/27 12:22:50;;;;;;;4.75;3.53;;;;;;;;;;5038880;28;20510;-55
2023/06/27 12:25:16;;;;;;;3.65;2.45;;;;;;;;;;5030854;28;20036;-56
2023/06/27 12:27:41;;;;;;;5.00;3.47;;;;;;;;;;5016443;28;20628;-55
2023/06/27 12:30:10;;;;;;;4.27;2.90;;;;;;;;;;5043353;28;20279;-55
2023/06/27 12:32:36;;;;;;;3.70;2.80;;;;;;;;;;5036307;28;20318;-56
2023/06/27 12:35:01;;;;;;;4.20;2.80;;;;;;;;;;5040811;28;20055;-55
2023/06/27 12:37:28;;;;;;;4.18;2.90;;;;;;;;;;5029900;28;20037;-56
2023/06/27 12:39:53;;;;;;;6.15;2.80;;;;;;;;;;5054615;28;20098;-55
2023/06/27 12:42:19;;;;;;;6.10;3.27;;;;;;;;;;5031535;28;20048;-55
2023/06/27 12:44:44;;;;;;;4.67;2.60;;;;;;;;;;5052237;28;20623;-55
2023/06/27 12:47:09;;;;;;;4.55;2.90;;;;;;;;;;5050192;28;20437;-56
2023/06/27 12:49:35;;;;;;;4.03;2.97;;;;;;;;;;5036236;28;20043;-55
2023/06/27 12:52:00;;;;;;;3.53;2.80;;;;;;;;;;5023226;28;20364;-55
2023/06/27 12:54:25;;;;;;;3.70;2.70;;;;;;;;;;5063463;28;20337;-55
2023/06/27 12:56:50;;;;;;;4.67;3.00;;;;;;;;;;5056249;28;20032;-56
2023/06/27 12:59:19;;;;;;;4.17;3.20;;;;;;;;;;5059139;28;20148;-55
2023/06/27 13:01:54;;;;;;;3.93;2.80;;;;;;;;;;5065426;28;20310;-55
2023/06/27 13:04:21;;;;;;;4.30;2.83;;;;;;;;;;5044275;28;20035;-56
2023/06/27 13:06:46;;;;;;;4.05;3.08;;;;;;;;;;5051309;28;20041;-56
2023/06/27 13:09:11;;;;;;;3.97;3.10;;;;;;;;;;5051432;28;20051;-56
2023/06/27 13:11:37;;;;;;;4.07;3.13;;;;;;;;;;5029611;28;20098;-56
2023/06/27 13:14:02;;;;;;;4.00;2.83;;;;;;;;;;5036094;28;20295;-56
2023/06/27 13:16:28;;;;;;;4.03;3.20;;;;;;;;;;5040256;28;20582;-58
2023/06/27 13:18:53;;;;;;;4.90;3.10;;;;;;;;;;5049737;28;20318;-57
2023/06/27 13:21:18;;;;;;;4.40;3.00;;;;;;;;;;5038213;28;20286;-57
2023/06/27 13:23:44;;;;;;;5.28;3.10;;;;;;;;;;5055710;28;20908;-57
2023/06/27 13:26:09;;;;;;;5.80;3.45;;;;;;;;;;5037871;28;20485;-57
2023/06/27 13:28:35;;;;;;;5.60;3.40;;;;;;;;;;5059784;28;20072;-56
2023/06/27 13:31:00;;;;;;;4.37;2.90;;;;;;;;;;5052734;28;20574;-57
2023/06/27 13:33:25;;;;;;;4.70;3.03;;;;;;;;;;5036863;28;20404;-56
2023/06/27 13:35:50;;;;;;;4.47;3.38;;;;;;;;;;5063285;28;20725;-57
2023/06/27 13:38:16;;;;;;;4.30;2.80;;;;;;;;;;5044098;28;20041;-58
2023/06/27 13:40:41;;;;;;;6.37;3.00;;;;;;;;;;5060189;28;20817;-57
2023/06/27 13:43:06;;;;;;;4.73;3.10;;;;;;;;;;5034760;28;20135;-57
2023/06/27 13:45:31;;;;;;;4.43;3.00;;;;;;;;;;5055981;28;20294;-57
2023/06/27 13:47:57;;;;;;;3.73;2.80;;;;;;;;;;5044536;28;20538;-57
2023/06/27 13:50:22;;;;;;;4.55;3.25;;;;;;;;;;5040788;28;20044;-57
2023/06/27 13:52:47;;;;;;;4.75;3.08;;;;;;;;;;5029297;28;20124;-57
2023/06/27 13:55:13;;;;;;;4.30;3.27;;;;;;;;;;5043972;28;20121;-58
2023/06/27 13:57:38;;;;;;;4.78;3.20;;;;;;;;;;5059085;28;20685;-56
2023/06/27 14:00:05;;;;;;;5.23;3.17;;;;;;;;;;5052850;28;20037;-58
2023/06/27 14:02:30;;;;;;;5.93;3.10;;;;;;;;;;5055184;28;20379;-57
2023/06/27 14:04:56;;;;;;;4.25;2.72;;;;;;;;;;5017093;28;20573;-58
2023/06/27 14:07:21;;;;;;;3.83;3.03;;;;;;;;;;5029295;28;20128;-58
2023/06/27 14:09:46;;;;;;;3.80;2.88;;;;;;;;;;5053415;28;20873;-58
2023/06/27 14:12:13;;;;;;;3.00;2.35;;;;;;;;;;5039832;28;20061;-57
2023/06/27 14:14:38;;;;;;;5.15;2.88;;;;;;;;;;5042246;28;20426;-57
2023/06/27 14:17:03;;;;;;;4.10;3.03;;;;;;;;;;5051990;28;20033;-57
2023/06/27 14:19:29;;;;;;;5.05;3.05;;;;;;;;;;5057117;28;20473;-57
2023/06/27 14:21:54;;;;;;;5.10;2.80;;;;;;;;;;5056450;28;20051;-58
2023/06/27 14:24:19;;;;;;;4.50;2.93;;;;;;;;;;5062185;28;20522;-58
2023/06/27 14:26:44;;;;;;;3.73;2.70;;;;;;;;;;5044977;28;20467;-57
2023/06/27 14:29:10;;;;;;;4.53;2.90;;;;;;;;;;5031351;28;20354;-57
2023/06/27 14:31:35;;;;;;;3.73;2.77;;;;;;;;;;5042601;28;20862;-58
2023/06/27 14:34:00;;;;;;;4.97;3.00;;;;;;;;;;5052165;28;20272;-59